sensor_id;sensor_type;location;lat;lon;timestamp;pressure;altitude;pressure_sealevel;temperature;humidity
49841;BME280;35738;49.890;5.930;2022-09-09T00:01:50;95193.94;;;12.90;100.00
49841;BME280;35738;49.890;5.930;2022-09-09T00:04:36;95204.97;;;12.90;100.00
49841;BME280;35738;49.890;5.930;2022-09-09T00:07:10;95190.03;;;12.91;100.00
49841;BME280;35738;49.890;5.930;2022-09-09T00:09:53;95188.78;;;12.89;100.00
49841;BME280;35738;49.890;5.930;2022-09-09T00:13:25;95197.88;;;12.89;100.00
49841;BME280;35738;49.890;5.930;2022-09-09T00:15:46;95201.88;;;12.92;100.00
49841;BME280;35738;49.890;5.930;2022-09-09T00:21:13;95209.84;;;12.97;100.00
49841;BME280;35738;49.890;5.930;2022-09-09T00:24:00;95207.75;;;12.90;100.00
49841;BME280;35738;49.890;5.930;2022-09-09T00:26:40;95199.31;;;12.83;100.00
49841;BME280;35738;49.890;5.930;2022-09-09T00:29:25;95200.25;;;12.91;100.00
49841;BME280;35738;49.890;5.930;2022-09-09T00:32:17;95193.16;;;12.90;100.00
49841;BME280;35738;49.890;5.930;2022-09-09T00:34:52;95191.91;;;12.87;100.00
49841;BME280;35738;49.890;5.930;2022-09-09T00:37:22;95193.34;;;12.81;100.00
49841;BME280;35738;49.890;5.930;2022-09-09T00:39:56;95200.03;;;12.80;100.00
49841;BME280;35738;49.890;5.930;2022-09-09T00:42:30;95186.06;;;12.73;100.00
49841;BME280;35738;49.890;5.930;2022-09-09T00:45:19;95194.19;;;12.66;100.00
49841;BME280;35738;49.890;5.930;2022-09-09T00:47:51;95188.75;;;12.69;100.00
49841;BME280;35738;49.890;5.930;2022-09-09T00:56:02;95200.59;;;12.70;100.00
49841;BME280;35738;49.890;5.930;2022-09-09T00:58:34;95200.16;;;12.68;100.00
49841;BME280;35738;49.890;5.930;2022-09-09T01:06:28;95204.38;;;12.81;100.00
49841;BME280;35738;49.890;5.930;2022-09-09T01:09:18;95200.75;;;12.77;100.00
49841;BME280;35738;49.890;5.930;2022-09-09T01:17:18;95189.34;;;12.79;99.71
49841;BME280;35738;49.890;5.930;2022-09-09T01:20:02;95189.56;;;12.70;98.96
49841;BME280;35738;49.890;5.930;2022-09-09T01:28:25;95190.78;;;12.57;99.74
49841;BME280;35738;49.890;5.930;2022-09-09T01:30:52;95187.25;;;12.56;99.04
49841;BME280;35738;49.890;5.930;2022-09-09T01:33:20;95191.50;;;12.54;98.98
49841;BME280;35738;49.890;5.930;2022-09-09T01:35:54;95194.44;;;12.61;99.48
49841;BME280;35738;49.890;5.930;2022-09-09T01:38:23;95196.41;;;12.60;99.44
49841;BME280;35738;49.890;5.930;2022-09-09T01:40:51;95198.97;;;12.69;99.60
49841;BME280;35738;49.890;5.930;2022-09-09T01:43:23;95197.09;;;12.73;99.26
49841;BME280;35738;49.890;5.930;2022-09-09T01:45:54;95207.34;;;12.72;99.61
49841;BME280;35738;49.890;5.930;2022-09-09T01:48:24;95196.09;;;12.81;99.22
49841;BME280;35738;49.890;5.930;2022-09-09T01:50:51;95201.91;;;12.76;99.73
49841;BME280;35738;49.890;5.930;2022-09-09T01:53:19;95199.31;;;12.83;99.40
49841;BME280;35738;49.890;5.930;2022-09-09T01:56:01;95202.06;;;12.83;99.15
49841;BME280;35738;49.890;5.930;2022-09-09T02:04:27;95200.03;;;12.80;98.39
49841;BME280;35738;49.890;5.930;2022-09-09T02:06:57;95194.34;;;12.73;99.17
49841;BME280;35738;49.890;5.930;2022-09-09T02:09:25;95189.91;;;12.68;98.77
49841;BME280;35738;49.890;5.930;2022-09-09T02:11:59;95197.38;;;12.68;99.21
49841;BME280;35738;49.890;5.930;2022-09-09T02:14:35;95194.63;;;12.68;99.51
49841;BME280;35738;49.890;5.930;2022-09-09T02:17:09;95198.28;;;12.72;98.70
49841;BME280;35738;49.890;5.930;2022-09-09T02:19:45;95194.50;;;12.80;98.34
49841;BME280;35738;49.890;5.930;2022-09-09T02:22:17;95201.09;;;12.76;99.09
49841;BME280;35738;49.890;5.930;2022-09-09T02:24:46;95187.81;;;12.81;99.11
49841;BME280;35738;49.890;5.930;2022-09-09T02:27:14;95181.44;;;12.77;98.84
49841;BME280;35738;49.890;5.930;2022-09-09T02:29:43;95179.56;;;12.81;98.62
49841;BME280;35738;49.890;5.930;2022-09-09T02:32:14;95181.44;;;12.77;98.70
49841;BME280;35738;49.890;5.930;2022-09-09T02:34:49;95182.59;;;12.76;98.78
49841;BME280;35738;49.890;5.930;2022-09-09T02:37:20;95186.50;;;12.75;98.90
49841;BME280;35738;49.890;5.930;2022-09-09T02:39:50;95189.28;;;12.75;98.93
49841;BME280;35738;49.890;5.930;2022-09-09T02:42:16;95185.63;;;12.71;99.52
49841;BME280;35738;49.890;5.930;2022-09-09T02:44:44;95177.50;;;12.78;99.36
49841;BME280;35738;49.890;5.930;2022-09-09T02:50:08;95166.03;;;12.76;99.69
49841;BME280;35738;49.890;5.930;2022-09-09T02:52:42;95177.22;;;12.83;99.85
49841;BME280;35738;49.890;5.930;2022-09-09T02:55:17;95170.91;;;12.83;100.00
49841;BME280;35738;49.890;5.930;2022-09-09T02:57:48;95172.16;;;12.85;99.60
49841;BME280;35738;49.890;5.930;2022-09-09T03:00:22;95170.28;;;12.89;99.30
49841;BME280;35738;49.890;5.930;2022-09-09T03:02:49;95172.75;;;12.94;98.80
49841;BME280;35738;49.890;5.930;2022-09-09T03:05:15;95171.88;;;12.90;99.25
49841;BME280;35738;49.890;5.930;2022-09-09T03:07:42;95171.94;;;12.94;98.52
49841;BME280;35738;49.890;5.930;2022-09-09T03:10:09;95170.56;;;12.84;98.82
49841;BME280;35738;49.890;5.930;2022-09-09T03:12:37;95171.88;;;12.90;98.76
49841;BME280;35738;49.890;5.930;2022-09-09T03:15:04;95175.44;;;12.91;99.12
49841;BME280;35738;49.890;5.930;2022-09-09T03:17:31;95171.28;;;13.00;99.09
49841;BME280;35738;49.890;5.930;2022-09-09T03:19:57;95166.84;;;12.96;98.99
49841;BME280;35738;49.890;5.930;2022-09-09T03:22:25;95168.16;;;13.02;99.01
49841;BME280;35738;49.890;5.930;2022-09-09T03:24:52;95169.25;;;12.97;99.07
49841;BME280;35738;49.890;5.930;2022-09-09T03:27:18;95164.09;;;12.96;98.85
49841;BME280;35738;49.890;5.930;2022-09-09T03:29:46;95167.66;;;12.96;99.07
49841;BME280;35738;49.890;5.930;2022-09-09T03:32:13;95162.50;;;12.95;98.96
49841;BME280;35738;49.890;5.930;2022-09-09T03:34:39;95167.38;;;13.01;98.62
49841;BME280;35738;49.890;5.930;2022-09-09T03:37:06;95161.25;;;12.92;99.50
49841;BME280;35738;49.890;5.930;2022-09-09T03:39:33;95159.75;;;12.95;99.09
49841;BME280;35738;49.890;5.930;2022-09-09T03:42:00;95150.50;;;12.87;98.71
49841;BME280;35738;49.890;5.930;2022-09-09T03:44:30;95156.97;;;12.95;98.93
49841;BME280;35738;49.890;5.930;2022-09-09T03:46:57;95152.97;;;12.92;98.69
49841;BME280;35738;49.890;5.930;2022-09-09T03:49:26;95144.78;;;12.96;98.95
49841;BME280;35738;49.890;5.930;2022-09-09T03:51:56;95150.66;;;12.94;98.77
49841;BME280;35738;49.890;5.930;2022-09-09T03:54:24;95137.88;;;12.86;98.60
49841;BME280;35738;49.890;5.930;2022-09-09T03:56:51;95138.59;;;12.83;99.07
49841;BME280;35738;49.890;5.930;2022-09-09T03:59:18;95141.06;;;12.88;98.55
49841;BME280;35738;49.890;5.930;2022-09-09T04:01:44;95135.56;;;12.88;98.32
49841;BME280;35738;49.890;5.930;2022-09-09T04:04:13;95141.06;;;12.88;98.34
49841;BME280;35738;49.890;5.930;2022-09-09T04:06:39;95136.19;;;12.82;98.70
49841;BME280;35738;49.890;5.930;2022-09-09T04:09:06;95139.25;;;12.77;98.20
49841;BME280;35738;49.890;5.930;2022-09-09T04:11:33;95143.81;;;12.69;97.57
49841;BME280;35738;49.890;5.930;2022-09-09T04:14:00;95136.84;;;12.75;97.74
49841;BME280;35738;49.890;5.930;2022-09-09T04:16:27;95135.81;;;12.64;96.99
49841;BME280;35738;49.890;5.930;2022-09-09T04:18:54;95142.47;;;12.63;96.69
49841;BME280;35738;49.890;5.930;2022-09-09T04:21:20;95151.09;;;12.61;96.80
49841;BME280;35738;49.890;5.930;2022-09-09T04:23:47;95138.75;;;12.55;97.09
49841;BME280;35738;49.890;5.930;2022-09-09T04:26:15;95141.34;;;12.64;96.94
49841;BME280;35738;49.890;5.930;2022-09-09T04:28:41;95136.34;;;12.54;97.13
49841;BME280;35738;49.890;5.930;2022-09-09T04:31:18;95140.19;;;12.49;97.12
49841;BME280;35738;49.890;5.930;2022-09-09T04:33:46;95133.16;;;12.52;97.14
49841;BME280;35738;49.890;5.930;2022-09-09T04:36:13;95143.03;;;12.53;97.04
49841;BME280;35738;49.890;5.930;2022-09-09T04:38:40;95138.03;;;12.58;97.59
49841;BME280;35738;49.890;5.930;2022-09-09T04:41:07;95145.94;;;12.60;97.05
49841;BME280;35738;49.890;5.930;2022-09-09T04:43:34;95144.41;;;12.62;96.80
49841;BME280;35738;49.890;5.930;2022-09-09T04:46:01;95148.09;;;12.51;96.87
49841;BME280;35738;49.890;5.930;2022-09-09T04:48:27;95147.75;;;12.52;96.42
49841;BME280;35738;49.890;5.930;2022-09-09T04:50:58;95151.03;;;12.58;96.15
49841;BME280;35738;49.890;5.930;2022-09-09T04:53:25;95160.91;;;12.59;96.27
49841;BME280;35738;49.890;5.930;2022-09-09T04:56:01;95163.22;;;12.57;95.73
49841;BME280;35738;49.890;5.930;2022-09-09T04:58:28;95161.63;;;12.56;96.69
49841;BME280;35738;49.890;5.930;2022-09-09T05:01:03;95164.44;;;12.59;96.51
49841;BME280;35738;49.890;5.930;2022-09-09T05:03:31;95164.19;;;12.64;97.00
49841;BME280;35738;49.890;5.930;2022-09-09T05:06:05;95168.28;;;12.70;96.29
49841;BME280;35738;49.890;5.930;2022-09-09T05:08:33;95162.69;;;12.67;96.40
49841;BME280;35738;49.890;5.930;2022-09-09T05:11:01;95165.16;;;12.72;96.73
49841;BME280;35738;49.890;5.930;2022-09-09T05:13:29;95173.44;;;12.72;95.84
49841;BME280;35738;49.890;5.930;2022-09-09T05:15:57;95163.84;;;12.66;95.01
49841;BME280;35738;49.890;5.930;2022-09-09T05:18:24;95164.28;;;12.68;94.61
49841;BME280;35738;49.890;5.930;2022-09-09T05:20:51;95175.03;;;12.73;94.83
49841;BME280;35738;49.890;5.930;2022-09-09T05:23:18;95178.00;;;12.64;93.92
49841;BME280;35738;49.890;5.930;2022-09-09T05:25:54;95173.53;;;12.60;93.99
49841;BME280;35738;49.890;5.930;2022-09-09T05:28:22;95177.63;;;12.66;95.10
49841;BME280;35738;49.890;5.930;2022-09-09T05:31:05;95177.63;;;12.66;94.85
49841;BME280;35738;49.890;5.930;2022-09-09T05:33:35;95174.44;;;12.64;95.20
49841;BME280;35738;49.890;5.930;2022-09-09T05:36:04;95179.41;;;12.74;94.17
49841;BME280;35738;49.890;5.930;2022-09-09T05:38:33;95172.91;;;12.66;94.84
49841;BME280;35738;49.890;5.930;2022-09-09T05:41:01;95179.47;;;12.62;94.34
49841;BME280;35738;49.890;5.930;2022-09-09T05:43:29;95177.44;;;12.75;93.86
49841;BME280;35738;49.890;5.930;2022-09-09T05:48:32;95173.88;;;12.74;93.86
49841;BME280;35738;49.890;5.930;2022-09-09T05:51:01;95174.22;;;12.72;93.97
49841;BME280;35738;49.890;5.930;2022-09-09T05:53:30;95182.94;;;12.75;94.25
49841;BME280;35738;49.890;5.930;2022-09-09T05:56:08;95167.03;;;12.68;94.24
49841;BME280;35738;49.890;5.930;2022-09-09T05:58:39;95172.72;;;12.59;93.54
49841;BME280;35738;49.890;5.930;2022-09-09T06:01:13;95183.50;;;12.64;94.06
49841;BME280;35738;49.890;5.930;2022-09-09T06:03:41;95181.19;;;12.66;93.29
49841;BME280;35738;49.890;5.930;2022-09-09T06:06:11;95172.56;;;12.68;93.44
49841;BME280;35738;49.890;5.930;2022-09-09T06:08:42;95190.19;;;12.63;92.41
49841;BME280;35738;49.890;5.930;2022-09-09T06:11:30;95178.69;;;12.61;91.91
49841;BME280;35738;49.890;5.930;2022-09-09T06:13:58;95185.47;;;12.64;92.96
49841;BME280;35738;49.890;5.930;2022-09-09T06:16:26;95184.38;;;12.68;92.91
49841;BME280;35738;49.890;5.930;2022-09-09T06:18:54;95183.66;;;12.71;92.33
49841;BME280;35738;49.890;5.930;2022-09-09T06:21:27;95182.50;;;12.72;92.19
49841;BME280;35738;49.890;5.930;2022-09-09T06:23:56;95179.47;;;12.78;91.75
49841;BME280;35738;49.890;5.930;2022-09-09T06:26:31;95173.59;;;12.79;91.18
49841;BME280;35738;49.890;5.930;2022-09-09T06:29:06;95173.16;;;12.77;91.78
49841;BME280;35738;49.890;5.930;2022-09-09T06:31:34;95167.63;;;12.77;90.69
49841;BME280;35738;49.890;5.930;2022-09-09T06:34:08;95169.03;;;12.87;90.56
49841;BME280;35738;49.890;5.930;2022-09-09T06:36:37;95168.38;;;12.93;89.81
49841;BME280;35738;49.890;5.930;2022-09-09T06:39:07;95176.28;;;13.30;88.60
49841;BME280;35738;49.890;5.930;2022-09-09T06:41:41;95166.88;;;13.73;88.34
49841;BME280;35738;49.890;5.930;2022-09-09T06:44:10;95173.34;;;13.61;87.78
49841;BME280;35738;49.890;5.930;2022-09-09T06:46:41;95165.31;;;13.53;87.78
49841;BME280;35738;49.890;5.930;2022-09-09T06:49:08;95168.44;;;13.51;88.52
49841;BME280;35738;49.890;5.930;2022-09-09T06:51:37;95174.25;;;13.46;86.75
49841;BME280;35738;49.890;5.930;2022-09-09T06:54:12;95172.50;;;13.38;86.60
49841;BME280;35738;49.890;5.930;2022-09-09T06:56:40;95169.38;;;13.40;87.60
49841;BME280;35738;49.890;5.930;2022-09-09T06:59:09;95183.75;;;13.29;87.05
49841;BME280;35738;49.890;5.930;2022-09-09T07:01:42;95178.75;;;13.35;87.17
49841;BME280;35738;49.890;5.930;2022-09-09T07:04:17;95181.75;;;13.46;86.92
49841;BME280;35738;49.890;5.930;2022-09-09T07:06:50;95181.78;;;13.30;87.38
49841;BME280;35738;49.890;5.930;2022-09-09T07:09:20;95181.06;;;13.33;86.62
49841;BME280;35738;49.890;5.930;2022-09-09T07:11:50;95179.41;;;13.28;86.57
49841;BME280;35738;49.890;5.930;2022-09-09T07:14:19;95178.53;;;13.24;86.83
49841;BME280;35738;49.890;5.930;2022-09-09T07:16:46;95177.13;;;13.34;87.45
49841;BME280;35738;49.890;5.930;2022-09-09T07:19:25;95181.66;;;13.42;87.33
49841;BME280;35738;49.890;5.930;2022-09-09T07:21:52;95190.88;;;13.30;88.04
49841;BME280;35738;49.890;5.930;2022-09-09T07:24:18;95188.06;;;13.46;87.57
49841;BME280;35738;49.890;5.930;2022-09-09T07:26:48;95173.38;;;13.42;87.67
49841;BME280;35738;49.890;5.930;2022-09-09T07:29:18;95189.50;;;13.59;87.48
49841;BME280;35738;49.890;5.930;2022-09-09T07:31:53;95185.88;;;13.55;86.53
49841;BME280;35738;49.890;5.930;2022-09-09T07:34:22;95185.16;;;13.58;87.18
49841;BME280;35738;49.890;5.930;2022-09-09T07:36:50;95182.09;;;13.63;86.20
49841;BME280;35738;49.890;5.930;2022-09-09T07:39:20;95186.31;;;13.57;86.91
49841;BME280;35738;49.890;5.930;2022-09-09T07:41:51;95189.06;;;13.57;86.51
49841;BME280;35738;49.890;5.930;2022-09-09T07:44:21;95192.78;;;13.46;87.05
49841;BME280;35738;49.890;5.930;2022-09-09T07:46:49;95189.78;;;13.35;87.19
49841;BME280;35738;49.890;5.930;2022-09-09T07:49:21;95193.63;;;13.30;87.46
49841;BME280;35738;49.890;5.930;2022-09-09T07:51:56;95184.84;;;13.25;86.87
49841;BME280;35738;49.890;5.930;2022-09-09T07:54:23;95188.16;;;13.15;88.43
49841;BME280;35738;49.890;5.930;2022-09-09T07:56:50;95186.47;;;13.10;89.70
49841;BME280;35738;49.890;5.930;2022-09-09T07:59:19;95194.41;;;13.12;89.92
49841;BME280;35738;49.890;5.930;2022-09-09T08:01:50;95180.91;;;13.26;89.75
49841;BME280;35738;49.890;5.930;2022-09-09T08:04:23;95192.03;;;13.29;89.21
49841;BME280;35738;49.890;5.930;2022-09-09T08:06:54;95198.06;;;13.35;88.90
49841;BME280;35738;49.890;5.930;2022-09-09T08:09:26;95210.03;;;13.39;88.76
49841;BME280;35738;49.890;5.930;2022-09-09T08:11:56;95199.47;;;13.45;88.62
49841;BME280;35738;49.890;5.930;2022-09-09T08:14:25;95202.00;;;13.34;87.12
49841;BME280;35738;49.890;5.930;2022-09-09T08:16:52;95207.91;;;13.52;87.31
49841;BME280;35738;49.890;5.930;2022-09-09T08:19:24;95204.41;;;13.55;86.25
49841;BME280;35738;49.890;5.930;2022-09-09T08:21:52;95201.13;;;13.68;85.84
49841;BME280;35738;49.890;5.930;2022-09-09T08:24:18;95215.41;;;13.93;85.53
49841;BME280;35738;49.890;5.930;2022-09-09T08:26:48;95208.16;;;14.08;83.81
49841;BME280;35738;49.890;5.930;2022-09-09T08:29:18;95218.91;;;14.32;84.02
49841;BME280;35738;49.890;5.930;2022-09-09T08:31:50;95216.75;;;14.45;82.63
49841;BME280;35738;49.890;5.930;2022-09-09T08:34:17;95209.69;;;14.48;82.37
49841;BME280;35738;49.890;5.930;2022-09-09T08:36:47;95224.13;;;14.38;82.09
49841;BME280;35738;49.890;5.930;2022-09-09T08:39:16;95225.72;;;14.16;82.52
49841;BME280;35738;49.890;5.930;2022-09-09T08:50:37;95229.47;;;13.85;87.29
49841;BME280;35738;49.890;5.930;2022-09-09T08:55:49;95238.75;;;14.15;86.50
49841;BME280;35738;49.890;5.930;2022-09-09T08:58:19;95231.09;;;14.09;85.21
49841;BME280;35738;49.890;5.930;2022-09-09T09:11:14;95233.75;;;14.24;81.84
49841;BME280;35738;49.890;5.930;2022-09-09T09:19:22;95231.75;;;14.44;80.71
49841;BME280;35738;49.890;5.930;2022-09-09T09:22:10;95237.16;;;14.37;81.19
49841;BME280;35738;49.890;5.930;2022-09-09T09:28:01;95248.00;;;14.46;79.99
49841;BME280;35738;49.890;5.930;2022-09-09T09:30:39;95248.06;;;14.49;80.08
49841;BME280;35738;49.890;5.930;2022-09-09T09:33:14;95247.34;;;14.33;80.13
49841;BME280;35738;49.890;5.930;2022-09-09T09:35:44;95251.19;;;14.48;80.18
49841;BME280;35738;49.890;5.930;2022-09-09T09:38:30;95247.09;;;14.42;80.80
49841;BME280;35738;49.890;5.930;2022-09-09T09:41:32;95241.66;;;14.45;80.64
49841;BME280;35738;49.890;5.930;2022-09-09T09:44:00;95236.50;;;14.44;80.40
49841;BME280;35738;49.890;5.930;2022-09-09T09:46:35;95241.72;;;14.49;80.14
49841;BME280;35738;49.890;5.930;2022-09-09T09:49:04;95233.22;;;14.61;80.92
49841;BME280;35738;49.890;5.930;2022-09-09T09:51:32;95246.44;;;14.71;80.18
49841;BME280;35738;49.890;5.930;2022-09-09T09:56:45;95246.97;;;14.80;80.06
49841;BME280;35738;49.890;5.930;2022-09-09T09:59:39;95251.69;;;15.03;79.03
49841;BME280;35738;49.890;5.930;2022-09-09T10:04:41;95245.88;;;15.11;77.94
49841;BME280;35738;49.890;5.930;2022-09-09T10:07:19;95245.59;;;15.20;78.07
49841;BME280;35738;49.890;5.930;2022-09-09T10:09:53;95254.03;;;15.01;79.78
49841;BME280;35738;49.890;5.930;2022-09-09T10:20:55;95248.06;;;15.55;77.00
49841;BME280;35738;49.890;5.930;2022-09-09T10:26:48;95240.31;;;15.64;74.61
49841;BME280;35738;49.890;5.930;2022-09-09T10:40:34;95223.34;;;16.06;73.55
49841;BME280;35738;49.890;5.930;2022-09-09T10:51:43;95228.69;;;16.26;71.80
49841;BME280;35738;49.890;5.930;2022-09-09T10:54:25;95223.19;;;16.70;71.93
49841;BME280;35738;49.890;5.930;2022-09-09T10:57:00;95224.16;;;16.92;69.13
49841;BME280;35738;49.890;5.930;2022-09-09T10:59:36;95226.41;;;16.75;70.20
49841;BME280;35738;49.890;5.930;2022-09-09T11:02:26;95219.66;;;16.76;69.90
49841;BME280;35738;49.890;5.930;2022-09-09T11:07:56;95212.53;;;16.75;70.37
49841;BME280;35738;49.890;5.930;2022-09-09T11:10:24;95220.97;;;16.45;70.33
49841;BME280;35738;49.890;5.930;2022-09-09T11:12:59;95223.31;;;16.40;72.66
49841;BME280;35738;49.890;5.930;2022-09-09T11:15:45;95217.03;;;16.46;70.03
49841;BME280;35738;49.890;5.930;2022-09-09T11:18:21;95203.25;;;16.61;69.63
49841;BME280;35738;49.890;5.930;2022-09-09T11:20:59;95202.34;;;16.94;69.76
49841;BME280;35738;49.890;5.930;2022-09-09T11:23:42;95194.94;;;16.61;68.70
49841;BME280;35738;49.890;5.930;2022-09-09T11:26:18;95202.50;;;17.19;69.01
49841;BME280;35738;49.890;5.930;2022-09-09T11:40:38;95194.34;;;17.54;66.79
49841;BME280;35738;49.890;5.930;2022-09-09T11:43:11;95203.50;;;17.58;66.74
49841;BME280;35738;49.890;5.930;2022-09-09T11:45:50;95207.44;;;16.84;66.36
49841;BME280;35738;49.890;5.930;2022-09-09T11:48:31;95216.00;;;16.65;69.12
49841;BME280;35738;49.890;5.930;2022-09-09T11:51:05;95221.06;;;16.15;72.19
49841;BME280;35738;49.890;5.930;2022-09-09T11:56:50;95222.09;;;14.35;84.63
49841;BME280;35738;49.890;5.930;2022-09-09T12:02:03;95234.56;;;13.83;89.31
49841;BME280;35738;49.890;5.930;2022-09-09T12:07:30;95223.94;;;13.27;94.11
49841;BME280;35738;49.890;5.930;2022-09-09T12:10:18;95252.81;;;13.14;97.58
49841;BME280;35738;49.890;5.930;2022-09-09T12:12:46;95243.00;;;13.16;98.20
49841;BME280;35738;49.890;5.930;2022-09-09T12:15:26;95246.84;;;13.27;97.94
49841;BME280;35738;49.890;5.930;2022-09-09T12:17:57;95254.91;;;13.36;96.49
49841;BME280;35738;49.890;5.930;2022-09-09T12:20:35;95242.88;;;13.63;96.52
49841;BME280;35738;49.890;5.930;2022-09-09T12:28:18;95255.34;;;14.38;95.28
49841;BME280;35738;49.890;5.930;2022-09-09T12:33:35;95247.19;;;15.21;93.74
49841;BME280;35738;49.890;5.930;2022-09-09T12:36:03;95241.19;;;15.45;93.98
49841;BME280;35738;49.890;5.930;2022-09-09T12:38:40;95231.34;;;15.18;89.97
49841;BME280;35738;49.890;5.930;2022-09-09T12:41:22;95243.03;;;14.81;89.74
49841;BME280;35738;49.890;5.930;2022-09-09T12:43:50;95237.13;;;14.83;91.67
49841;BME280;35738;49.890;5.930;2022-09-09T12:46:33;95233.25;;;14.87;91.76
49841;BME280;35738;49.890;5.930;2022-09-09T12:49:03;95232.72;;;15.05;92.92
49841;BME280;35738;49.890;5.930;2022-09-09T12:51:32;95231.84;;;15.27;92.35
49841;BME280;35738;49.890;5.930;2022-09-09T12:53:59;95232.31;;;15.03;90.33
49841;BME280;35738;49.890;5.930;2022-09-09T12:56:29;95225.13;;;15.28;89.84
49841;BME280;35738;49.890;5.930;2022-09-09T12:58:58;95233.31;;;14.91;88.92
49841;BME280;35738;49.890;5.930;2022-09-09T13:01:27;95232.47;;;14.87;88.42
49841;BME280;35738;49.890;5.930;2022-09-09T13:03:55;95225.56;;;14.51;88.57
49841;BME280;35738;49.890;5.930;2022-09-09T13:06:24;95235.56;;;14.36;89.59
49841;BME280;35738;49.890;5.930;2022-09-09T13:08:57;95227.94;;;14.29;89.24
49841;BME280;35738;49.890;5.930;2022-09-09T13:11:36;95235.00;;;14.27;90.37
49841;BME280;35738;49.890;5.930;2022-09-09T13:14:05;95222.59;;;14.17;90.02
49841;BME280;35738;49.890;5.930;2022-09-09T13:16:34;95230.81;;;14.14;90.23
49841;BME280;35738;49.890;5.930;2022-09-09T13:19:10;95220.19;;;14.16;89.82
49841;BME280;35738;49.890;5.930;2022-09-09T13:21:40;95220.31;;;14.23;89.42
49841;BME280;35738;49.890;5.930;2022-09-09T13:24:25;95230.56;;;14.22;89.87
49841;BME280;35738;49.890;5.930;2022-09-09T13:26:59;95228.97;;;14.21;88.97
49841;BME280;35738;49.890;5.930;2022-09-09T13:29:29;95220.13;;;14.12;89.76
49841;BME280;35738;49.890;5.930;2022-09-09T13:32:12;95220.97;;;14.16;89.44
49841;BME280;35738;49.890;5.930;2022-09-09T13:34:52;95227.94;;;14.29;89.89
49841;BME280;35738;49.890;5.930;2022-09-09T13:37:35;95217.41;;;14.39;89.10
49841;BME280;35738;49.890;5.930;2022-09-09T13:40:04;95217.50;;;14.42;89.75
49841;BME280;35738;49.890;5.930;2022-09-09T13:42:35;95218.53;;;14.57;88.80
49841;BME280;35738;49.890;5.930;2022-09-09T13:45:04;95213.00;;;14.57;87.77
49841;BME280;35738;49.890;5.930;2022-09-09T13:47:34;95223.00;;;14.65;87.34
49841;BME280;35738;49.890;5.930;2022-09-09T13:50:25;95228.91;;;14.86;87.52
49841;BME280;35738;49.890;5.930;2022-09-09T13:52:53;95220.47;;;14.79;85.82
49841;BME280;35738;49.890;5.930;2022-09-09T13:55:22;95232.13;;;15.18;87.09
49841;BME280;35738;49.890;5.930;2022-09-09T13:57:55;95223.69;;;15.38;85.54
49841;BME280;35738;49.890;5.930;2022-09-09T14:00:23;95224.13;;;15.70;85.36
49841;BME280;35738;49.890;5.930;2022-09-09T14:02:50;95207.47;;;15.66;82.92
49841;BME280;35738;49.890;5.930;2022-09-09T14:05:18;95222.53;;;15.69;83.89
49841;BME280;35738;49.890;5.930;2022-09-09T14:07:45;95208.53;;;15.58;82.73
49841;BME280;35738;49.890;5.930;2022-09-09T14:10:18;95211.50;;;15.72;82.69
49841;BME280;35738;49.890;5.930;2022-09-09T14:12:45;95212.16;;;15.62;81.35
49841;BME280;35738;49.890;5.930;2022-09-09T14:15:14;95222.31;;;15.54;81.92
49841;BME280;35738;49.890;5.930;2022-09-09T14:17:41;95213.38;;;15.65;82.61
49841;BME280;35738;49.890;5.930;2022-09-09T14:20:09;95197.25;;;15.74;82.94
49841;BME280;35738;49.890;5.930;2022-09-09T14:22:38;95205.88;;;15.65;81.83
49841;BME280;35738;49.890;5.930;2022-09-09T14:25:06;95198.44;;;16.13;80.99
49841;BME280;35738;49.890;5.930;2022-09-09T14:27:33;95208.25;;;16.41;81.06
49841;BME280;35738;49.890;5.930;2022-09-09T14:30:00;95219.25;;;16.74;78.49
49841;BME280;35738;49.890;5.930;2022-09-09T14:32:27;95222.63;;;16.53;77.88
49841;BME280;35738;49.890;5.930;2022-09-09T14:34:54;95211.47;;;16.46;78.24
49841;BME280;35738;49.890;5.930;2022-09-09T14:37:20;95217.00;;;16.06;79.06
49841;BME280;35738;49.890;5.930;2022-09-09T14:39:47;95210.13;;;15.93;80.49
49841;BME280;35738;49.890;5.930;2022-09-09T14:42:17;95210.66;;;15.68;81.21
49841;BME280;35738;49.890;5.930;2022-09-09T14:44:44;95218.50;;;15.63;81.35
49841;BME280;35738;49.890;5.930;2022-09-09T14:47:11;95232.19;;;15.22;84.85
49841;BME280;35738;49.890;5.930;2022-09-09T14:49:38;95245.22;;;14.69;88.76
49841;BME280;35738;49.890;5.930;2022-09-09T14:52:09;95226.03;;;14.34;89.89
49841;BME280;35738;49.890;5.930;2022-09-09T14:54:36;95235.38;;;14.25;92.52
49841;BME280;35738;49.890;5.930;2022-09-09T14:57:02;95230.03;;;14.59;92.66
49841;BME280;35738;49.890;5.930;2022-09-09T14:59:31;95244.19;;;14.80;90.41
49841;BME280;35738;49.890;5.930;2022-09-09T15:01:58;95245.16;;;14.65;89.19
49841;BME280;35738;49.890;5.930;2022-09-09T15:04:27;95220.50;;;14.56;87.89
49841;BME280;35738;49.890;5.930;2022-09-09T15:06:54;95244.66;;;14.59;89.42
49841;BME280;35738;49.890;5.930;2022-09-09T15:09:21;95241.53;;;14.61;89.92
49841;BME280;35738;49.890;5.930;2022-09-09T15:11:49;95249.81;;;14.38;90.78
49841;BME280;35738;49.890;5.930;2022-09-09T15:14:15;95249.25;;;14.29;90.23
49841;BME280;35738;49.890;5.930;2022-09-09T15:16:45;95241.44;;;14.35;91.05
49841;BME280;35738;49.890;5.930;2022-09-09T15:19:12;95240.78;;;14.41;90.61
49841;BME280;35738;49.890;5.930;2022-09-09T15:21:38;95226.44;;;14.36;91.17
49841;BME280;35738;49.890;5.930;2022-09-09T15:24:06;95223.38;;;14.41;91.05
49841;BME280;35738;49.890;5.930;2022-09-09T15:26:34;95223.38;;;14.41;88.62
49841;BME280;35738;49.890;5.930;2022-09-09T15:29:05;95224.06;;;14.34;91.05
49841;BME280;35738;49.890;5.930;2022-09-09T15:31:34;95208.19;;;14.31;89.14
49841;BME280;35738;49.890;5.930;2022-09-09T15:34:04;95234.38;;;14.60;88.25
49841;BME280;35738;49.890;5.930;2022-09-09T15:36:40;95230.50;;;14.65;87.97
49841;BME280;35738;49.890;5.930;2022-09-09T15:39:10;95224.41;;;14.78;87.32